createdAt,value
2022-11-03T00:01:13.370Z,77449.81
2022-11-03T00:03:39.951Z,77451.75
2022-11-03T00:06:06.651Z,77445.97
2022-11-03T00:08:37.689Z,77442.09
2022-11-03T00:11:05.053Z,77457.53
2022-11-03T00:13:31.639Z,77467.16
2022-11-03T00:15:58.289Z,77472.94
2022-11-03T00:18:24.836Z,77469.09
2022-11-03T00:21:02.512Z,77469.09
2022-11-03T00:23:30.359Z,77472.94
2022-11-03T00:26:03.907Z,77492.22
2022-11-03T00:28:31.244Z,77494.16
2022-11-03T00:30:57.818Z,77496.06
2022-11-03T00:33:26.849Z,77498.00
2022-11-03T00:35:56.979Z,77503.78
2022-11-03T00:38:23.555Z,77499.94
2022-11-03T00:40:54.303Z,77517.28
2022-11-03T00:43:22.044Z,77534.63
2022-11-03T00:45:48.667Z,77555.84
2022-11-03T00:48:30.291Z,77573.19
2022-11-03T00:51:16.142Z,77578.97
2022-11-03T00:53:46.903Z,77577.03
2022-11-03T00:56:23.887Z,77588.59
2022-11-03T00:58:51.329Z,77592.47
2022-11-03T01:01:22.018Z,77600.16
2022-11-03T01:04:08.920Z,77609.81
2022-11-03T01:06:51.290Z,77627.16
2022-11-03T01:09:19.359Z,77631.00
2022-11-03T01:11:56.787Z,77627.16
2022-11-03T01:14:23.942Z,77629.09
2022-11-03T01:16:50.500Z,77627.16
2022-11-03T01:19:17.019Z,77623.31
2022-11-03T01:21:44.265Z,77611.72
2022-11-03T01:24:10.837Z,77619.44
2022-11-03T01:26:37.463Z,77604.03
2022-11-03T01:29:05.818Z,77590.53
2022-11-03T01:31:32.700Z,77584.75
2022-11-03T01:33:59.280Z,77600.16
2022-11-03T01:36:26.314Z,77605.94
2022-11-03T01:38:54.122Z,77619.44
2022-11-03T01:41:21.621Z,77634.88
2022-11-03T01:43:52.649Z,77648.34
2022-11-03T01:46:24.759Z,77656.06
2022-11-03T01:48:59.898Z,77650.28
2022-11-03T01:51:29.036Z,77650.28
2022-11-03T01:53:57.544Z,77648.34
2022-11-03T01:56:25.535Z,77661.84
2022-11-03T01:58:55.564Z,77663.78
2022-11-03T02:01:23.301Z,77656.06
2022-11-03T02:03:57.937Z,77661.84
2022-11-03T02:06:28.444Z,77654.13
2022-11-03T02:09:05.171Z,77656.06
2022-11-03T02:11:52.222Z,77673.41
2022-11-03T02:14:21.471Z,77673.41
2022-11-03T02:16:53.388Z,77684.97
2022-11-03T02:19:22.670Z,77690.75
2022-11-03T02:21:56.314Z,77688.84
2022-11-03T02:24:35.037Z,77684.97
2022-11-03T02:27:01.632Z,77692.69
2022-11-03T02:29:28.195Z,77684.97
2022-11-03T02:31:58.839Z,77684.97
2022-11-03T02:34:36.676Z,77684.97
2022-11-03T02:37:05.627Z,77669.56
2022-11-03T02:39:36.143Z,77646.44
2022-11-03T02:42:04.650Z,77623.31
2022-11-03T02:44:32.385Z,77607.88
2022-11-03T02:47:01.290Z,77600.16
2022-11-03T02:49:28.172Z,77594.38
2022-11-03T02:52:04.783Z,77586.69
2022-11-03T02:54:42.291Z,77584.75
2022-11-03T02:57:14.550Z,77588.59
2022-11-03T02:59:45.130Z,77573.19
2022-11-03T03:02:15.839Z,77571.25
2022-11-03T03:04:46.362Z,77573.19
2022-11-03T03:07:32.867Z,77565.47
2022-11-03T03:10:06.462Z,77563.53
2022-11-03T03:12:35.022Z,77567.41
2022-11-03T03:15:04.040Z,77573.19
2022-11-03T03:17:36.844Z,77573.19
2022-11-03T03:20:03.804Z,77577.03
2022-11-03T03:22:59.505Z,77590.53
2022-11-03T03:25:28.991Z,77588.59
2022-11-03T03:28:00.318Z,77575.09
2022-11-03T03:30:28.160Z,77569.31
2022-11-03T03:32:57.482Z,77573.19
2022-11-03T03:35:26.894Z,77584.75
2022-11-03T03:37:54.887Z,77580.91
2022-11-03T03:40:24.784Z,77573.19
2022-11-03T03:42:52.051Z,77578.97
2022-11-03T03:45:19.330Z,77573.19
2022-11-03T03:47:46.259Z,77567.41
2022-11-03T03:50:13.045Z,77573.19
2022-11-03T03:52:39.625Z,77602.09
2022-11-03T03:55:07.861Z,77607.88
2022-11-03T03:57:34.449Z,77629.09
2022-11-03T04:00:00.981Z,77631.00
2022-11-03T04:02:27.653Z,77646.44
2022-11-03T04:04:54.443Z,77652.22
2022-11-03T04:07:43.486Z,77658.00
2022-11-03T04:10:10.424Z,77644.50
2022-11-03T04:12:55.695Z,77634.88
2022-11-03T04:15:40.893Z,77625.22
2022-11-03T04:18:26.129Z,77631.00
2022-11-03T04:21:11.343Z,77625.22
2022-11-03T04:23:37.880Z,77615.59
2022-11-03T04:26:06.845Z,77621.38
2022-11-03T04:28:33.323Z,77623.31
2022-11-03T04:30:59.906Z,77607.88
2022-11-03T04:33:26.644Z,77619.44
2022-11-03T04:35:54.330Z,77621.38
2022-11-03T04:38:24.380Z,77621.38
2022-11-03T04:40:55.578Z,77621.38
2022-11-03T04:43:33.830Z,77613.66
2022-11-03T04:46:00.523Z,77617.50
2022-11-03T04:48:27.936Z,77619.44
2022-11-03T04:50:55.650Z,77615.59
2022-11-03T04:53:22.978Z,77611.72
2022-11-03T04:55:50.949Z,77596.31
2022-11-03T04:58:21.844Z,77584.75
2022-11-03T05:00:57.358Z,77569.31
2022-11-03T05:03:25.554Z,77553.91
2022-11-03T05:05:52.168Z,77532.69
2022-11-03T05:08:19.651Z,77528.84
2022-11-03T05:10:46.552Z,77519.22
2022-11-03T05:13:22.991Z,77519.22
2022-11-03T05:15:50.914Z,77523.06
2022-11-03T05:18:21.645Z,77519.22
2022-11-03T05:20:59.707Z,77521.13
2022-11-03T05:23:27.807Z,77515.34
2022-11-03T05:25:56.605Z,77513.44
2022-11-03T05:28:27.815Z,77503.78
2022-11-03T05:30:55.034Z,77496.06
2022-11-03T05:33:23.268Z,77480.66
2022-11-03T05:35:49.836Z,77463.31
2022-11-03T05:38:19.972Z,77459.47
2022-11-03T05:40:49.353Z,77438.25
2022-11-03T05:43:16.054Z,77424.75
2022-11-03T05:45:43.132Z,77411.25
2022-11-03T05:48:22.979Z,77399.69
2022-11-03T05:50:49.720Z,77392.00
2022-11-03T05:53:16.623Z,77380.44
2022-11-03T05:55:43.672Z,77372.72
2022-11-03T05:58:16.167Z,77365.00
2022-11-03T06:00:47.261Z,77345.72
2022-11-03T06:03:16.954Z,77345.72
2022-11-03T06:05:43.631Z,77303.34
2022-11-03T06:08:15.294Z,77309.13
2022-11-03T06:10:45.137Z,77311.03
2022-11-03T06:13:15.739Z,77322.59
2022-11-03T06:15:44.060Z,77338.03
2022-11-03T06:18:16.263Z,77341.88
2022-11-03T06:20:50.453Z,77345.72
2022-11-03T06:23:18.460Z,77345.72
2022-11-03T06:25:45.099Z,77332.25
2022-11-03T06:28:20.896Z,77322.59
2022-11-03T06:30:47.680Z,77320.69
2022-11-03T06:33:16.301Z,77305.25
2022-11-03T06:35:43.827Z,77293.69
2022-11-03T06:38:22.295Z,77284.06
2022-11-03T06:40:50.559Z,77264.78
2022-11-03T06:43:20.117Z,77257.06
2022-11-03T06:45:51.564Z,77245.50
2022-11-03T06:48:21.995Z,77214.66
2022-11-03T06:50:48.625Z,77199.25
2022-11-03T06:53:20.343Z,77187.69
2022-11-03T06:55:48.476Z,77176.13
2022-11-03T06:58:15.012Z,77187.69
2022-11-03T07:00:45.857Z,77183.84
2022-11-03T07:03:33.204Z,77172.28
2022-11-03T07:06:12.802Z,77164.56
2022-11-03T07:08:41.129Z,77156.84
2022-11-03T07:11:24.191Z,77158.78
2022-11-03T07:13:56.668Z,77133.72
2022-11-03T07:16:29.475Z,77068.19
2022-11-03T07:18:59.185Z,77014.22
2022-11-03T07:21:32.019Z,76954.47
2022-11-03T07:24:03.324Z,76906.31
2022-11-03T07:26:30.234Z,76881.25
2022-11-03T07:28:56.767Z,76813.78
2022-11-03T07:31:24.986Z,76811.88
2022-11-03T07:33:55.636Z,76794.53
2022-11-03T07:36:24.139Z,76752.13
2022-11-03T07:38:52.623Z,76723.22
2022-11-03T07:41:37.144Z,76698.16
2022-11-03T07:44:03.726Z,76640.34
2022-11-03T07:46:31.491Z,76601.81
2022-11-03T07:49:03.277Z,76559.41
2022-11-03T07:51:31.557Z,76547.84
2022-11-03T07:54:15.976Z,76547.84
2022-11-03T07:56:43.822Z,76515.09
2022-11-03T07:59:11.548Z,76505.47
2022-11-03T08:01:41.983Z,76480.41
2022-11-03T08:04:12.891Z,76453.44
2022-11-03T08:06:39.742Z,76412.97
2022-11-03T08:09:07.136Z,76389.84
2022-11-03T08:11:33.735Z,76395.63
2022-11-03T08:14:00.372Z,76368.66
2022-11-03T08:16:26.882Z,76368.66
2022-11-03T08:18:53.628Z,76357.09
2022-11-03T08:21:20.395Z,76389.84
2022-11-03T08:27:41.297Z,76382.13
2022-11-03T08:30:17.698Z,76374.44
2022-11-03T08:32:44.643Z,76366.72
2022-11-03T08:35:11.366Z,76349.38
2022-11-03T08:37:37.939Z,76328.19
2022-11-03T08:40:04.690Z,76312.78
2022-11-03T08:42:31.298Z,76278.09
2022-11-03T08:44:59.268Z,76297.34
2022-11-03T08:47:25.969Z,76253.03
2022-11-03T08:49:52.545Z,76253.03
2022-11-03T08:52:19.890Z,76268.44
2022-11-03T08:54:46.557Z,76280.00
2022-11-03T08:57:13.384Z,76278.09
2022-11-03T08:59:39.904Z,76262.66
2022-11-03T09:02:06.644Z,76251.13
2022-11-03T09:04:33.302Z,76231.84
2022-11-03T09:06:59.870Z,76216.44
2022-11-03T09:12:13.157Z,76243.41
2022-11-03T09:14:39.865Z,76239.56
2022-11-03T09:17:06.438Z,76216.44
2022-11-03T09:19:33.226Z,76212.56
2022-11-03T09:22:00.419Z,76218.34
2022-11-03T09:24:27.250Z,76212.56
2022-11-03T09:26:55.979Z,76218.34
2022-11-03T09:29:36.390Z,76201.00
2022-11-03T09:32:21.829Z,76212.56
2022-11-03T09:34:49.793Z,76179.81
2022-11-03T09:37:16.687Z,76158.63
2022-11-03T09:39:46.604Z,76141.28
2022-11-03T09:42:13.206Z,76143.22
2022-11-03T09:44:39.772Z,76149.00
2022-11-03T09:47:06.815Z,76139.34
2022-11-03T09:49:34.481Z,76118.16
2022-11-03T09:52:02.427Z,76127.78
2022-11-03T09:54:30.145Z,76139.34
2022-11-03T09:56:58.904Z,76123.94
2022-11-03T09:59:25.532Z,76125.88
2022-11-03T10:01:53.612Z,76123.94
2022-11-03T10:04:22.870Z,76120.09
2022-11-03T10:06:49.627Z,76129.72
2022-11-03T10:09:17.650Z,76120.09
2022-11-03T10:11:45.612Z,76123.94
2022-11-03T10:14:14.594Z,76100.81
2022-11-03T10:16:42.547Z,76100.81
2022-11-03T10:19:10.149Z,76060.38
2022-11-03T10:21:38.121Z,76048.81
2022-11-03T10:24:05.171Z,76052.66
2022-11-03T10:26:43.086Z,76062.28
2022-11-03T10:31:50.613Z,76027.59
2022-11-03T10:34:27.683Z,75989.06
2022-11-03T10:37:09.489Z,75969.81
2022-11-03T10:39:36.350Z,75958.25
2022-11-03T10:42:02.918Z,75971.72
2022-11-03T10:44:29.899Z,75981.38
2022-11-03T10:47:41.173Z,75965.94
2022-11-03T10:50:23.123Z,75965.94
2022-11-03T10:52:53.523Z,75987.16
2022-11-03T10:55:30.216Z,75992.94
2022-11-03T10:57:58.598Z,75989.06
2022-11-03T11:00:25.360Z,75989.06
2022-11-03T11:02:56.904Z,76000.63
2022-11-03T11:05:24.481Z,75985.22
2022-11-03T11:07:52.318Z,75981.38
2022-11-03T11:10:21.298Z,75992.94
2022-11-03T11:13:06.633Z,75992.94
2022-11-03T11:15:47.252Z,75992.94
2022-11-03T11:18:29.233Z,76004.47
2022-11-03T11:20:56.831Z,76004.47
2022-11-03T11:23:29.478Z,75985.22
2022-11-03T11:26:11.482Z,75969.81
2022-11-03T11:28:42.424Z,75973.66
2022-11-03T11:31:27.186Z,75989.06
2022-11-03T11:34:23.622Z,75973.66
2022-11-03T11:37:13.787Z,75958.25
2022-11-03T11:39:44.654Z,75931.28
2022-11-03T11:42:15.252Z,75931.28
2022-11-03T11:45:00.056Z,75912.00
2022-11-03T11:47:29.935Z,75896.59
2022-11-03T11:50:05.976Z,75873.47
2022-11-03T11:52:34.656Z,75875.41
2022-11-03T11:55:01.235Z,75883.09
2022-11-03T11:57:30.291Z,75886.97
2022-11-03T11:59:56.841Z,75869.63
2022-11-03T12:02:24.226Z,75869.63
2022-11-03T12:04:59.635Z,75861.91
2022-11-03T12:07:33.632Z,75838.78
2022-11-03T12:10:09.937Z,75813.75
2022-11-03T12:12:36.773Z,75807.97
2022-11-03T12:15:04.033Z,75788.69
2022-11-03T12:17:30.713Z,75784.84
2022-11-03T12:19:57.258Z,75779.06
2022-11-03T12:22:23.730Z,75759.81
2022-11-03T12:24:53.196Z,75754.03
2022-11-03T12:27:25.602Z,75738.63
2022-11-03T12:30:05.340Z,75750.16
2022-11-03T12:32:34.918Z,75738.63
2022-11-03T12:35:02.697Z,75736.69
2022-11-03T12:37:29.214Z,75732.84
2022-11-03T12:39:55.798Z,75717.41
2022-11-03T12:42:24.852Z,75707.78
2022-11-03T12:44:51.894Z,75692.38
2022-11-03T12:47:18.641Z,75694.31
2022-11-03T12:49:45.221Z,75694.31
2022-11-03T12:52:11.852Z,75684.66
2022-11-03T12:54:39.854Z,75676.97
2022-11-03T12:57:06.727Z,75669.25
2022-11-03T12:59:40.034Z,75663.47
2022-11-03T13:02:07.066Z,75661.56
2022-11-03T13:04:34.102Z,75657.69
2022-11-03T13:07:00.806Z,75653.84
2022-11-03T13:09:27.888Z,75634.56
2022-11-03T13:12:13.140Z,75628.78
2022-11-03T13:14:43.205Z,75607.59
2022-11-03T13:17:12.644Z,75601.81
2022-11-03T13:19:39.613Z,75599.91
2022-11-03T13:22:06.186Z,75596.03
2022-11-03T13:24:32.792Z,75599.91
2022-11-03T13:26:59.379Z,75592.19
2022-11-03T13:29:27.327Z,75607.59
2022-11-03T13:31:56.551Z,75607.59
2022-11-03T13:34:23.127Z,75599.91
2022-11-03T13:36:49.715Z,75599.91
2022-11-03T13:39:16.757Z,75605.69
2022-11-03T13:41:43.421Z,75596.03
2022-11-03T13:44:10.024Z,75596.03
2022-11-03T13:46:36.598Z,75592.19
2022-11-03T13:51:49.997Z,75588.34
2022-11-03T13:59:49.773Z,75580.63
2022-11-03T14:05:06.991Z,75565.22
2022-11-03T14:07:33.982Z,75569.06
2022-11-03T14:10:03.715Z,75580.63
2022-11-03T14:12:30.983Z,75584.50
2022-11-03T14:14:58.106Z,75578.72
2022-11-03T14:17:24.745Z,75572.94
2022-11-03T14:19:52.835Z,75572.94
2022-11-03T14:22:20.580Z,75572.94
2022-11-03T14:24:47.352Z,75582.56
2022-11-03T14:27:15.836Z,75578.72
2022-11-03T14:29:43.827Z,75596.03
2022-11-03T14:32:11.051Z,75601.81
2022-11-03T14:34:38.569Z,75607.59
2022-11-03T14:37:06.063Z,75623.03
2022-11-03T14:39:32.730Z,75636.50
2022-11-03T14:42:05.026Z,75636.50
2022-11-03T14:44:35.882Z,75642.28
2022-11-03T14:47:03.598Z,75653.84
2022-11-03T14:49:31.030Z,75655.78
2022-11-03T14:52:02.464Z,75665.41
2022-11-03T14:54:29.587Z,75669.25
2022-11-03T14:56:56.334Z,75684.66
2022-11-03T14:59:23.612Z,75684.66
2022-11-03T15:01:51.848Z,75700.09
2022-11-03T15:04:18.774Z,75702.00
2022-11-03T15:06:45.859Z,75703.94
2022-11-03T15:09:15.749Z,75700.09
2022-11-03T15:11:46.094Z,75711.63
2022-11-03T15:14:13.102Z,75715.50
2022-11-03T15:16:40.314Z,75715.50
2022-11-03T15:19:07.782Z,75711.63
2022-11-03T15:21:34.570Z,75723.19
2022-11-03T15:26:48.096Z,75734.75
2022-11-03T15:29:14.714Z,75734.75
2022-11-03T15:31:46.394Z,75727.06
2022-11-03T15:34:14.497Z,75744.38
2022-11-03T15:36:41.650Z,75750.16
2022-11-03T15:39:09.048Z,75765.59
2022-11-03T15:41:36.689Z,75769.44
2022-11-03T15:47:41.437Z,75784.84
2022-11-03T15:54:11.800Z,75782.91
2022-11-03T15:56:39.878Z,75782.91
2022-11-03T15:59:08.442Z,75782.91
2022-11-03T16:01:37.130Z,75775.22
2022-11-03T16:04:26.048Z,75757.88
2022-11-03T16:07:08.674Z,75769.44
2022-11-03T16:09:36.217Z,75765.59
2022-11-03T16:12:03.124Z,75773.28
2022-11-03T16:14:30.462Z,75796.41
2022-11-03T16:16:57.710Z,75796.41
2022-11-03T16:19:24.329Z,75806.03
2022-11-03T16:21:51.740Z,75823.38
2022-11-03T16:24:18.561Z,75831.09
2022-11-03T16:26:45.271Z,75842.66
2022-11-03T16:29:11.850Z,75858.06
2022-11-03T16:31:38.433Z,75854.22
2022-11-03T16:34:05.224Z,75852.28
2022-11-03T16:36:31.903Z,75854.22
2022-11-03T16:38:58.499Z,75842.66
2022-11-03T16:41:25.118Z,75842.66
2022-11-03T16:43:52.086Z,75842.66
2022-11-03T16:46:18.676Z,75856.13
2022-11-03T16:48:45.388Z,75859.97
2022-11-03T16:51:12.166Z,75865.75
2022-11-03T16:53:38.827Z,75865.75
2022-11-03T16:56:05.537Z,75871.53
2022-11-03T16:58:32.184Z,75869.63
2022-11-03T17:00:59.084Z,75871.53
2022-11-03T17:03:25.782Z,75877.31
2022-11-03T17:05:52.410Z,75869.63
2022-11-03T17:08:46.852Z,75877.31
2022-11-03T17:11:05.742Z,75881.19
2022-11-03T17:13:32.320Z,75881.19
2022-11-03T17:15:58.899Z,75875.41
2022-11-03T17:18:25.554Z,75873.47
2022-11-03T17:20:52.282Z,75888.88
2022-11-03T17:23:19.749Z,75896.59
2022-11-03T17:25:46.908Z,75904.28
2022-11-03T17:28:15.137Z,75904.28
2022-11-03T17:30:41.846Z,75912.00
2022-11-03T17:33:12.223Z,75912.00
2022-11-03T17:35:40.229Z,75917.78
2022-11-03T17:38:09.247Z,75910.06
2022-11-03T17:40:36.286Z,75917.78
2022-11-03T17:43:04.418Z,75923.56
2022-11-03T17:45:31.100Z,75925.50
2022-11-03T17:47:58.549Z,75942.84
2022-11-03T17:50:25.555Z,75937.06
2022-11-03T17:52:53.707Z,75946.69
2022-11-03T17:55:29.904Z,75958.25
2022-11-03T17:57:58.078Z,75973.66
2022-11-03T18:00:25.525Z,75981.38
2022-11-03T18:02:53.483Z,75987.16
2022-11-03T18:05:23.243Z,75996.78
2022-11-03T18:07:50.763Z,75996.78
2022-11-03T18:10:17.412Z,76006.41
2022-11-03T18:13:04.251Z,76012.19
2022-11-03T18:15:32.353Z,76029.53
2022-11-03T18:17:59.122Z,76039.16
2022-11-03T18:20:27.084Z,76046.88
2022-11-03T18:22:55.512Z,76046.88
2022-11-03T18:25:22.134Z,76058.44
2022-11-03T18:27:48.738Z,76056.50
2022-11-03T18:30:18.775Z,76054.59
2022-11-03T18:32:45.834Z,76048.81
2022-11-03T18:35:20.914Z,76058.44
2022-11-03T18:37:47.654Z,76073.84
2022-11-03T18:40:15.317Z,76068.06
2022-11-03T18:42:42.027Z,76070.00
2022-11-03T18:45:13.342Z,76062.28
2022-11-03T18:47:40.248Z,76056.50
2022-11-03T18:50:07.395Z,76062.28
2022-11-03T18:52:36.712Z,76070.00
2022-11-03T18:55:03.642Z,76070.00
2022-11-03T18:57:30.807Z,76070.00
2022-11-03T18:59:58.471Z,76079.63
2022-11-03T19:02:26.493Z,76073.84
2022-11-03T19:04:53.144Z,76066.13
2022-11-03T19:07:24.782Z,76064.22
2022-11-03T19:09:52.070Z,76054.59
2022-11-03T19:12:19.154Z,76039.16
2022-11-03T19:14:48.096Z,76039.16
2022-11-03T19:17:23.537Z,76041.09
2022-11-03T19:19:51.455Z,76035.31
2022-11-03T19:22:19.443Z,76031.47
2022-11-03T19:24:46.275Z,76031.47
2022-11-03T19:27:18.854Z,76031.47
2022-11-03T19:29:46.068Z,76035.31
2022-11-03T19:32:33.509Z,76023.75
2022-11-03T19:35:07.902Z,76023.75
2022-11-03T19:37:36.084Z,76017.97
2022-11-03T19:40:10.902Z,76019.91
2022-11-03T19:42:37.699Z,76000.63
2022-11-03T19:45:05.952Z,75992.94
2022-11-03T19:47:47.932Z,75977.50
2022-11-03T19:50:21.836Z,75981.38
2022-11-03T19:52:49.809Z,75977.50
2022-11-03T19:55:17.706Z,75981.38
2022-11-03T19:57:44.328Z,75989.06
2022-11-03T20:00:16.198Z,75992.94
2022-11-03T20:02:45.839Z,75992.94
2022-11-03T20:05:13.127Z,75991.00
2022-11-03T20:07:40.911Z,75996.78
2022-11-03T20:10:14.151Z,75991.00
2022-11-03T20:12:40.811Z,75991.00
2022-11-03T20:15:16.832Z,75985.22
2022-11-03T20:17:44.135Z,75979.44
2022-11-03T20:20:12.328Z,75981.38
2022-11-03T20:22:40.153Z,75979.44
2022-11-03T20:25:10.768Z,75981.38
2022-11-03T20:27:37.426Z,75981.38
2022-11-03T20:30:04.778Z,75967.88
2022-11-03T20:32:31.381Z,75960.16
2022-11-03T20:34:57.971Z,75954.38
2022-11-03T20:37:24.610Z,75938.97
2022-11-03T20:39:51.283Z,75927.41
2022-11-03T20:42:21.326Z,75931.28
2022-11-03T20:44:47.936Z,75927.41
2022-11-03T20:47:14.742Z,75946.69
2022-11-03T20:49:41.271Z,75958.25
2022-11-03T20:52:09.941Z,75960.16
2022-11-03T20:54:36.689Z,75973.66
2022-11-03T20:57:03.227Z,75973.66
2022-11-03T20:59:33.223Z,75973.66
2022-11-03T21:02:01.709Z,75969.81
2022-11-03T21:04:29.987Z,75967.88
2022-11-03T21:06:56.840Z,75958.25
2022-11-03T21:09:23.882Z,75948.63
2022-11-03T21:11:51.540Z,75937.06
2022-11-03T21:14:25.302Z,75931.28
2022-11-03T21:17:10.931Z,75940.91
2022-11-03T21:19:56.640Z,75946.69
2022-11-03T21:22:50.828Z,75950.53
2022-11-03T21:25:16.100Z,75944.75
2022-11-03T21:27:42.886Z,75935.13
2022-11-03T21:30:10.732Z,75927.41
2022-11-03T21:32:37.913Z,75917.78
2022-11-03T21:35:05.736Z,75921.63
2022-11-03T21:37:32.559Z,75942.84
2022-11-03T21:39:59.799Z,75940.91
2022-11-03T21:42:45.238Z,75946.69
2022-11-03T21:45:12.714Z,75946.69
2022-11-03T21:47:39.224Z,75931.28
2022-11-03T21:50:06.162Z,75913.94
2022-11-03T21:52:32.911Z,75896.59
2022-11-03T21:55:00.330Z,75896.59
2022-11-03T21:57:27.374Z,75896.59
2022-11-03T21:59:53.913Z,75892.75
2022-11-03T22:02:20.579Z,75885.03
2022-11-03T22:04:47.448Z,75873.47
2022-11-03T22:07:14.037Z,75886.97
2022-11-03T22:09:40.615Z,75865.75
2022-11-03T22:12:07.266Z,75858.06
2022-11-03T22:14:52.696Z,75846.50
2022-11-03T22:17:19.275Z,75854.22
2022-11-03T22:20:04.503Z,75856.13
2022-11-03T22:22:49.513Z,75861.91
2022-11-03T22:25:34.748Z,75858.06
2022-11-03T22:28:01.256Z,75846.50
2022-11-03T22:30:46.388Z,75840.72
2022-11-03T22:33:13.288Z,75842.66
2022-11-03T22:35:58.366Z,75846.50
2022-11-03T22:39:03.573Z,75852.28
2022-11-03T22:41:48.665Z,75844.56
2022-11-03T22:44:33.916Z,75842.66
2022-11-03T22:47:02.882Z,75850.34
2022-11-03T22:49:29.820Z,75840.72
2022-11-03T22:51:56.402Z,75836.88
2022-11-03T22:54:23.385Z,75850.34
2022-11-03T22:56:50.211Z,75846.50
2022-11-03T22:59:17.650Z,75854.22
2022-11-03T23:01:46.736Z,75854.22
2022-11-03T23:04:13.694Z,75852.28
2022-11-03T23:06:42.839Z,75858.06
2022-11-03T23:09:11.469Z,75846.50
2022-11-03T23:11:38.555Z,75856.13
2022-11-03T23:14:07.603Z,75852.28
2022-11-03T23:16:39.259Z,75834.94
2022-11-03T23:19:24.681Z,75827.22
2022-11-03T23:21:52.315Z,75819.53
2022-11-03T23:24:42.109Z,75819.53
2022-11-03T23:27:11.759Z,75825.31
2022-11-03T23:29:39.427Z,75819.53
2022-11-03T23:32:06.491Z,75806.03
2022-11-03T23:34:35.229Z,75804.13
2022-11-03T23:37:02.494Z,75788.69
2022-11-03T23:39:29.089Z,75781.00
2022-11-03T23:41:55.616Z,75769.44
2022-11-03T23:44:22.235Z,75757.88
2022-11-03T23:47:07.529Z,75746.31
2022-11-03T23:49:34.056Z,75734.75
2022-11-03T23:52:00.628Z,75717.41
2022-11-03T23:54:27.434Z,75713.56
2022-11-03T23:57:12.929Z,75715.50
2022-11-03T23:59:39.528Z,75707.78
